Time;durP1;ratioP1;P1;durP2;ratioP2;P2;SDS_P1;SDS_P2;PMS_P1;PMS_P2;Temp;Humidity;BMP_temperature;BMP_pressure;BME280_temperature;BME280_humidity;BME280_pressure;Samples;Min_cycle;Max_cycle;Signal;HPM_P1;HPM_P2
2023/10/03 00:00:37;;;;;;;;;;;;;;;;;;6355009;28;19979;-81
2023/10/03 00:03:37;;;;;;;;;;;;;;;;;;6359820;28;19923;-81
2023/10/03 00:06:38;;;;;;;;;;;;;;;;;;6341744;28;19908;-82
2023/10/03 00:09:38;;;;;;;;;;;;;;;;;;6358909;28;20415;-81
2023/10/03 00:12:39;;;;;;;;;;;;;;;;;;6359064;28;19908;-82
2023/10/03 00:15:45;;;;;;;;;;;;;;;;;;6341406;28;19912;-80
2023/10/03 00:18:45;;;;;;;;;;;;;;;;;;6359558;28;19908;-81
2023/10/03 00:21:45;;;;;;;;;;;;;;;;;;6358821;28;19915;-81
2023/10/03 00:24:46;;;;;;;;;;;;;;;;;;6358897;28;19907;-81
2023/10/03 00:27:46;;;;;;;;;;;;;;;;;;6358603;28;19925;-81
2023/10/03 00:30:49;;;;;;;;;;;;;;;;;;6351691;28;19915;-81
2023/10/03 00:33:49;;;;;;;;;;;;;;;;;;6351038;28;19912;-81
2023/10/03 00:36:52;;;;;;;;;;;;;;;;;;6331973;28;19911;-81
2023/10/03 00:39:52;;;;;;;;;;;;;;;;;;6350203;28;19907;-81
2023/10/03 00:42:53;;;;;;;;;;;;;;;;;;6331919;28;19908;-80
2023/10/03 00:45:53;;;;;;;;;;;;;;;;;;6331777;28;19907;-81
2023/10/03 00:48:54;;;;;;;;;;;;;;;;;;6350006;28;19986;-81
2023/10/03 00:51:54;;;;;;;;;;;;;;;;;;6331682;28;19907;-81
2023/10/03 00:54:55;;;;;;;;;;;;;;;;;;6331883;28;19958;-81
2023/10/03 00:58:18;;;;;;;;;;;;;;;;;;6349520;28;20361;-81
2023/10/03 01:01:21;;;;;;;;;;;;;;;;;;6332375;28;20302;-80
2023/10/03 01:04:22;;;;;;;;;;;;;;;;;;6350070;28;19915;-81
2023/10/03 01:07:23;;;;;;;;;;;;;;;;;;6349856;28;19907;-81
2023/10/03 01:10:24;;;;;;;;;;;;;;;;;;6349504;28;19949;-81
2023/10/03 01:13:24;;;;;;;;;;;;;;;;;;6331131;28;19915;-80
2023/10/03 01:16:33;;;;;;;;;;;;;;;;;;6331054;28;19912;-80
2023/10/03 01:19:33;;;;;;;;;;;;;;;;;;6349820;28;19908;-81
2023/10/03 01:22:35;;;;;;;;;;;;;;;;;;6349226;28;19932;-80
2023/10/03 01:25:42;;;;;;;;;;;;;;;;;;6330696;28;20298;-81
2023/10/03 01:28:42;;;;;;;;;;;;;;;;;;6350143;28;19904;-91
2023/10/03 01:31:42;;;;;;;;;;;;;;;;;;6330869;28;19908;-91
2023/10/03 01:34:42;;;;;;;;;;;;;;;;;;6330833;28;19908;-91
2023/10/03 01:37:45;;;;;;;;;;;;;;;;;;6330654;28;19915;-91
2023/10/03 01:40:48;;;;;;;;;;;;;;;;;;6348846;28;20296;-91
2023/10/03 01:43:49;;;;;;;;;;;;;;;;;;6350196;28;19950;-91
2023/10/03 01:46:50;;;;;;;;;;;;;;;;;;6349076;28;19912;-90
2023/10/03 01:49:51;;;;;;;;;;;;;;;;;;6349200;28;19959;-91
2023/10/03 01:52:52;;;;;;;;;;;;;;;;;;6349131;28;19953;-91
2023/10/03 01:55:53;;;;;;;;;;;;;;;;;;6348652;28;19919;-91
2023/10/03 01:58:54;;;;;;;;;;;;;;;;;;6349261;28;19961;-92
2023/10/03 02:01:55;;;;;;;;;;;;;;;;;;6349043;28;19911;-92
2023/10/03 02:04:56;;;;;;;;;;;;;;;;;;6330188;28;20278;-92
2023/10/03 02:08:03;;;;;;;;;;;;;;;;;;6348551;28;19908;-91
2023/10/03 02:11:05;;;;;;;;;;;;;;;;;;6347549;28;20297;-92
2023/10/03 02:14:07;;;;;;;;;;;;;;;;;;6349580;28;19908;-92
2023/10/03 02:17:07;;;;;;;;;;;;;;;;;;6348526;28;20010;-92
2023/10/03 02:20:16;;;;;;;;;;;;;;;;;;6348158;28;19907;-92
2023/10/03 02:23:19;;;;;;;;;;;;;;;;;;6329719;28;19998;-92
2023/10/03 02:26:20;;;;;;;;;;;;;;;;;;6348255;28;19919;-92
2023/10/03 02:29:20;;;;;;;;;;;;;;;;;;6347929;28;19908;-91
2023/10/03 02:32:20;;;;;;;;;;;;;;;;;;6347931;28;20327;-92
2023/10/03 02:35:22;;;;;;;;;;;;;;;;;;6329576;28;19915;-91
2023/10/03 02:38:29;;;;;;;;;;;;;;;;;;6348464;28;19912;-92
2023/10/03 02:41:29;;;;;;;;;;;;;;;;;;6347111;28;19992;-91
2023/10/03 02:44:29;;;;;;;;;;;;;;;;;;6329611;28;19915;-92
2023/10/03 02:47:30;;;;;;;;;;;;;;;;;;6348086;28;19914;-83
2023/10/03 02:50:33;;;;;;;;;;;;;;;;;;6348133;28;19908;-83
2023/10/03 02:53:35;;;;;;;;;;;;;;;;;;6329390;28;19922;-83
2023/10/03 02:56:35;;;;;;;;;;;;;;;;;;6347591;28;20346;-91
2023/10/03 02:59:36;;;;;;;;;;;;;;;;;;6329746;28;19908;-91
2023/10/03 03:02:36;;;;;;;;;;;;;;;;;;6348417;28;20010;-92
2023/10/03 03:05:37;;;;;;;;;;;;;;;;;;6347579;28;20258;-89
2023/10/03 03:08:39;;;;;;;;;;;;;;;;;;6329342;28;19999;-91
2023/10/03 03:11:39;;;;;;;;;;;;;;;;;;6347474;28;20008;-92
2023/10/03 03:14:40;;;;;;;;;;;;;;;;;;6329332;28;20365;-92
2023/10/03 03:17:40;;;;;;;;;;;;;;;;;;6347360;28;19912;-92
2023/10/03 03:20:43;;;;;;;;;;;;;;;;;;6329346;28;20277;-92
2023/10/03 03:23:43;;;;;;;;;;;;;;;;;;6351670;28;19998;-92
2023/10/03 03:26:47;;;;;;;;;;;;;;;;;;6352101;28;20370;-90
2023/10/03 03:30:17;;;;;;;;;;;;;;;;;;6352419;28;19912;-91
2023/10/03 03:33:08;;;;;;;;;;;;;;;;;;6352091;28;19992;-91
2023/10/03 03:36:09;;;;;;;;;;;;;;;;;;6351881;28;19963;-91
2023/10/03 03:39:15;;;;;;;;;;;;;;;;;;6351820;28;20330;-91
2023/10/03 03:42:17;;;;;;;;;;;;;;;;;;6352480;28;19915;-91
2023/10/03 03:45:21;;;;;;;;;;;;;;;;;;6351971;28;19908;-91
2023/10/03 03:48:22;;;;;;;;;;;;;;;;;;6351991;28;19946;-91
2023/10/03 03:51:22;;;;;;;;;;;;;;;;;;6351498;28;19908;-91
2023/10/03 03:54:22;;;;;;;;;;;;;;;;;;6333575;28;20277;-92
2023/10/03 03:57:22;;;;;;;;;;;;;;;;;;6351163;28;19966;-82
2023/10/03 04:00:28;;;;;;;;;;;;;;;;;;6351940;28;19912;-82
2023/10/03 04:03:34;;;;;;;;;;;;;;;;;;6351460;28;19930;-82
2023/10/03 04:06:34;;;;;;;;;;;;;;;;;;6351565;28;19915;-82
2023/10/03 04:09:36;;;;;;;;;;;;;;;;;;6351306;28;19947;-82
2023/10/03 04:12:41;;;;;;;;;;;;;;;;;;6350991;28;20037;-82
2023/10/03 04:15:44;;;;;;;;;;;;;;;;;;6332919;28;20390;-81
2023/10/03 04:18:44;;;;;;;;;;;;;;;;;;6351095;28;19990;-82
2023/10/03 04:21:45;;;;;;;;;;;;;;;;;;6351003;28;19946;-82
2023/10/03 04:24:45;;;;;;;;;;;;;;;;;;6350726;28;19947;-82
2023/10/03 04:27:45;;;;;;;;;;;;;;;;;;6332222;28;19908;-82
2023/10/03 04:30:45;;;;;;;;;;;;;;;;;;6350526;28;20438;-82
2023/10/03 04:33:46;;;;;;;;;;;;;;;;;;6331251;28;19982;-81
2023/10/03 04:36:47;;;;;;;;;;;;;;;;;;6332377;28;20381;-81
2023/10/03 04:39:47;;;;;;;;;;;;;;;;;;6350643;28;19998;-81
2023/10/03 04:42:47;;;;;;;;;;;;;;;;;;6332330;28;19908;-82
2023/10/03 04:45:47;;;;;;;;;;;;;;;;;;6350580;28;19915;-81
2023/10/03 04:48:47;;;;;;;;;;;;;;;;;;6350035;28;19908;-81
2023/10/03 04:51:48;;;;;;;;;;;;;;;;;;6350127;28;19957;-82
2023/10/03 04:54:49;;;;;;;;;;;;;;;;;;6331817;28;19912;-81
2023/10/03 04:57:50;;;;;;;;;;;;;;;;;;6331412;28;19924;-82
2023/10/03 05:00:50;;;;;;;;;;;;;;;;;;6349967;28;19947;-81
2023/10/03 05:03:50;;;;;;;;;;;;;;;;;;6331502;28;19973;-81
2023/10/03 05:06:51;;;;;;;;;;;;;;;;;;6349773;28;19958;-82
2023/10/03 05:09:54;;;;;;;;;;;;;;;;;;6350311;28;19907;-81
2023/10/03 05:12:54;;;;;;;;;;;;;;;;;;6350041;28;19908;-84
2023/10/03 05:15:54;;;;;;;;;;;;;;;;;;6349517;28;19936;-82
2023/10/03 05:18:55;;;;;;;;;;;;;;;;;;6349519;28;19908;-81
2023/10/03 05:21:56;;;;;;;;;;;;;;;;;;6349461;28;19915;-83
2023/10/03 05:24:57;;;;;;;;;;;;;;;;;;6349223;28;20396;-82
2023/10/03 05:27:58;;;;;;;;;;;;;;;;;;6331088;28;19908;-82
2023/10/03 05:30:58;;;;;;;;;;;;;;;;;;6349858;28;19950;-82
2023/10/03 05:33:58;;;;;;;;;;;;;;;;;;6330874;28;19914;-82
2023/10/03 05:36:58;;;;;;;;;;;;;;;;;;6348939;28;20250;-83
2023/10/03 05:39:58;;;;;;;;;;;;;;;;;;6349640;28;19919;-82
2023/10/03 05:43:00;;;;;;;;;;;;;;;;;;6348968;28;19915;-83
2023/10/03 05:46:01;;;;;;;;;;;;;;;;;;6330516;28;19912;-83
2023/10/03 05:49:02;;;;;;;;;;;;;;;;;;6348790;28;20334;-83
2023/10/03 05:52:02;;;;;;;;;;;;;;;;;;6330741;28;20406;-83
2023/10/03 05:55:03;;;;;;;;;;;;;;;;;;6330105;28;19908;-82
2023/10/03 05:58:03;;;;;;;;;;;;;;;;;;6330080;28;20391;-82
2023/10/03 06:01:03;;;;;;;;;;;;;;;;;;6348530;28;19960;-83
2023/10/03 06:04:04;;;;;;;;;;;;;;;;;;6330001;28;19950;-82
2023/10/03 06:07:06;;;;;;;;;;;;;;;;;;6348682;28;19922;-82
2023/10/03 06:10:06;;;;;;;;;;;;;;;;;;6348634;28;19933;-81
2023/10/03 06:13:09;;;;;;;;;;;;;;;;;;6348359;28;19912;-82
2023/10/03 06:16:12;;;;;;;;;;;;;;;;;;6348462;28;19911;-83
2023/10/03 06:19:12;;;;;;;;;;;;;;;;;;6348732;28;19914;-88
2023/10/03 06:22:13;;;;;;;;;;;;;;;;;;6348393;28;19915;-89
2023/10/03 06:25:13;;;;;;;;;;;;;;;;;;6348792;28;19908;-89
2023/10/03 06:28:13;;;;;;;;;;;;;;;;;;6329841;28;19936;-81
2023/10/03 06:31:13;;;;;;;;;;;;;;;;;;6348062;28;19907;-82
2023/10/03 06:34:16;;;;;;;;;;;;;;;;;;6348622;28;19961;-82
2023/10/03 06:37:16;;;;;;;;;;;;;;;;;;6348257;28;19947;-82
2023/10/03 06:40:16;;;;;;;;;;;;;;;;;;6348018;28;20426;-82
2023/10/03 06:43:17;;;;;;;;;;;;;;;;;;6347891;28;19908;-81
2023/10/03 06:46:18;;;;;;;;;;;;;;;;;;6347894;28;20354;-82
2023/10/03 06:49:22;;;;;;;;;;;;;;;;;;6347819;28;19914;-81
2023/10/03 06:52:22;;;;;;;;;;;;;;;;;;6347838;28;19935;-83
2023/10/03 06:55:22;;;;;;;;;;;;;;;;;;6347520;28;19914;-82
2023/10/03 06:58:22;;;;;;;;;;;;;;;;;;6351886;28;19908;-82
2023/10/03 07:01:22;;;;;;;;;;;;;;;;;;6353113;28;19907;-81
2023/10/03 07:04:23;;;;;;;;;;;;;;;;;;6334859;28;19908;-82
2023/10/03 07:07:23;;;;;;;;;;;;;;;;;;6352733;28;19931;-83
2023/10/03 07:10:25;;;;;;;;;;;;;;;;;;6334416;28;19908;-82
2023/10/03 07:13:26;;;;;;;;;;;;;;;;;;6352572;28;19957;-82
2023/10/03 07:16:30;;;;;;;;;;;;;;;;;;6352427;28;19911;-85
2023/10/03 07:19:30;;;;;;;;;;;;;;;;;;6334361;28;19908;-82
2023/10/03 07:22:30;;;;;;;;;;;;;;;;;;6334119;28;20273;-82
2023/10/03 07:25:32;;;;;;;;;;;;;;;;;;6333927;28;19908;-82
2023/10/03 07:28:32;;;;;;;;;;;;;;;;;;6352707;28;19915;-81
2023/10/03 07:31:32;;;;;;;;;;;;;;;;;;6352203;28;19927;-82
2023/10/03 07:34:32;;;;;;;;;;;;;;;;;;6333713;28;19942;-81
2023/10/03 07:37:33;;;;;;;;;;;;;;;;;;6351985;28;19912;-82
2023/10/03 07:40:33;;;;;;;;;;;;;;;;;;6334036;28;20020;-82
2023/10/03 07:43:34;;;;;;;;;;;;;;;;;;6351872;28;19924;-81
2023/10/03 07:46:34;;;;;;;;;;;;;;;;;;6351538;28;19985;-82
2023/10/03 07:49:35;;;;;;;;;;;;;;;;;;6352314;28;19981;-81
2023/10/03 07:52:35;;;;;;;;;;;;;;;;;;6351724;28;19908;-81
2023/10/03 07:55:35;;;;;;;;;;;;;;;;;;6351806;27;19965;-80
2023/10/03 07:58:35;;;;;;;;;;;;;;;;;;6333305;28;19912;-79
2023/10/03 08:01:38;;;;;;;;;;;;;;;;;;6351853;28;20002;-80
2023/10/03 08:04:40;;;;;;;;;;;;;;;;;;6333240;28;19915;-82
2023/10/03 08:07:47;;;;;;;;;;;;;;;;;;6350566;28;19914;-82
2023/10/03 08:10:49;;;;;;;;;;;;;;;;;;6332531;28;20391;-80
2023/10/03 08:13:50;;;;;;;;;;;;;;;;;;6351525;28;19908;-80
2023/10/03 08:16:51;;;;;;;;;;;;;;;;;;6332781;28;20312;-82
2023/10/03 08:19:51;;;;;;;;;;;;;;;;;;6350936;28;20254;-80
2023/10/03 08:22:51;;;;;;;;;;;;;;;;;;6351663;28;19943;-80
2023/10/03 08:26:01;;;;;;;;;;;;;;;;;;6332810;28;19991;-80
2023/10/03 08:29:04;;;;;;;;;;;;;;;;;;6351206;28;19943;-79
2023/10/03 08:32:04;;;;;;;;;;;;;;;;;;6350613;28;20341;-81
2023/10/03 08:35:08;;;;;;;;;;;;;;;;;;6333884;28;19947;-79
2023/10/03 08:38:08;;;;;;;;;;;;;;;;;;6350495;28;20369;-80
2023/10/03 08:41:11;;;;;;;;;;;;;;;;;;6351346;28;19966;-80
2023/10/03 08:44:14;;;;;;;;;;;;;;;;;;6350828;28;20437;-80
2023/10/03 08:47:15;;;;;;;;;;;;;;;;;;6332527;28;20276;-88
2023/10/03 08:50:29;;;;;;;;;;;;;;;;;;6333503;28;19907;-87
2023/10/03 08:53:29;;;;;;;;;;;;;;;;;;6350368;28;20074;-88
2023/10/03 08:56:29;;;;;;;;;;;;;;;;;;6331748;28;20285;-87
2023/10/03 08:59:30;;;;;;;;;;;;;;;;;;6331871;28;19952;-87
2023/10/03 09:02:31;;;;;;;;;;;;;;;;;;6332112;28;20277;-87
2023/10/03 09:05:33;;;;;;;;;;;;;;;;;;6350725;28;20381;-88
2023/10/03 09:08:34;;;;;;;;;;;;;;;;;;6331723;28;20385;-88
2023/10/03 09:11:36;;;;;;;;;;;;;;;;;;6350406;28;19908;-88
2023/10/03 09:14:39;;;;;;;;;;;;;;;;;;6331701;28;20342;-88
2023/10/03 09:17:39;;;;;;;;;;;;;;;;;;6331226;28;19938;-87
2023/10/03 09:20:42;;;;;;;;;;;;;;;;;;6330887;28;19911;-88
2023/10/03 09:23:42;;;;;;;;;;;;;;;;;;6331257;28;19912;-88
2023/10/03 09:26:45;;;;;;;;;;;;;;;;;;6349736;28;19908;-87
2023/10/03 09:29:49;;;;;;;;;;;;;;;;;;6349340;28;19908;-87
2023/10/03 09:32:49;;;;;;;;;;;;;;;;;;6349306;28;20370;-88
2023/10/03 09:35:49;;;;;;;;;;;;;;;;;;6331004;28;19951;-88
2023/10/03 09:38:49;;;;;;;;;;;;;;;;;;6330854;28;19918;-88
2023/10/03 09:41:49;;;;;;;;;;;;;;;;;;6348996;28;19946;-88
2023/10/03 09:44:50;;;;;;;;;;;;;;;;;;6330898;28;19999;-87
2023/10/03 09:47:58;;;;;;;;;;;;;;;;;;6331072;28;19908;-81
2023/10/03 09:51:05;;;;;;;;;;;;;;;;;;6348841;28;20040;-80
2023/10/03 09:54:10;;;;;;;;;;;;;;;;;;6348988;28;19990;-79
2023/10/03 09:57:16;;;;;;;;;;;;;;;;;;6330421;28;19924;-80
2023/10/03 10:03:38;;;;;;;;;;;;;;;;;;6349358;28;19907;-82
2023/10/03 10:06:40;;;;;;;;;;;;;;;;;;6348860;28;19943;-83
2023/10/03 10:09:40;;;;;;;;;;;;;;;;;;6348820;28;19908;-80
2023/10/03 10:12:43;;;;;;;;;;;;;;;;;;6330470;28;20312;-83
2023/10/03 10:15:43;;;;;;;;;;;;;;;;;;6348305;28;19908;-82
2023/10/03 10:18:46;;;;;;;;;;;;;;;;;;6348670;28;19911;-83
2023/10/03 10:21:48;;;;;;;;;;;;;;;;;;6348224;28;20289;-79
2023/10/03 10:24:48;;;;;;;;;;;;;;;;;;6348975;28;19907;-79
2023/10/03 10:27:48;;;;;;;;;;;;;;;;;;6348138;28;19908;-79
2023/10/03 10:30:48;;;;;;;;;;;;;;;;;;6329605;28;19953;-82
2023/10/03 10:33:49;;;;;;;;;;;;;;;;;;6347625;28;19912;-79
2023/10/03 10:36:50;;;;;;;;;;;;;;;;;;6348582;28;19920;-82
2023/10/03 10:39:50;;;;;;;;;;;;;;;;;;6329967;28;19923;-79
2023/10/03 10:42:50;;;;;;;;;;;;;;;;;;6329550;28;19908;-79
2023/10/03 10:45:50;;;;;;;;;;;;;;;;;;6329432;28;19912;-81
2023/10/03 10:48:50;;;;;;;;;;;;;;;;;;6348092;28;19915;-79
2023/10/03 10:51:50;;;;;;;;;;;;;;;;;;6329646;28;20385;-79
2023/10/03 10:54:50;;;;;;;;;;;;;;;;;;6348188;28;19914;-81
2023/10/03 10:57:51;;;;;;;;;;;;;;;;;;6329302;28;19926;-79
2023/10/03 11:00:51;;;;;;;;;;;;;;;;;;6347672;28;19956;-80
2023/10/03 11:03:51;;;;;;;;;;;;;;;;;;6348306;28;20016;-80
2023/10/03 11:06:52;;;;;;;;;;;;;;;;;;6330709;28;19915;-88
2023/10/03 11:09:52;;;;;;;;;;;;;;;;;;6329985;28;20281;-88
2023/10/03 11:12:52;;;;;;;;;;;;;;;;;;6330212;28;19908;-88
2023/10/03 11:15:53;;;;;;;;;;;;;;;;;;6342563;27;19896;-88
2023/10/03 11:18:54;;;;;;;;;;;;;;;;;;6351975;28;19920;-87
2023/10/03 11:21:54;;;;;;;;;;;;;;;;;;6329400;28;19958;-87
2023/10/03 11:24:55;;;;;;;;;;;;;;;;;;6329141;28;20253;-87
2023/10/03 11:27:56;;;;;;;;;;;;;;;;;;6363565;28;19892;-87
2023/10/03 11:30:57;;;;;;;;;;;;;;;;;;6379049;28;19908;-87
2023/10/03 11:33:59;;;;;;;;;;;;;;;;;;6359264;28;19915;-86
2023/10/03 11:37:01;;;;;;;;;;;;;;;;;;6374904;27;19996;-87
2023/10/03 11:40:03;;;;;;;;;;;;;;;;;;6378459;28;19989;-88
2023/10/03 11:43:03;;;;;;;;;;;;;;;;;;6371541;28;19914;-88
2023/10/03 11:46:04;;;;;;;;;;;;;;;;;;6364455;28;19939;-86
2023/10/03 11:49:04;;;;;;;;;;;;;;;;;;6364835;28;19940;-87
2023/10/03 11:52:05;;;;;;;;;;;;;;;;;;6381821;27;19903;-86
2023/10/03 11:55:09;;;;;;;;;;;;;;;;;;6360203;27;19903;-88
2023/10/03 11:58:10;;;;;;;;;;;;;;;;;;6384538;27;19908;-88
2023/10/03 12:01:12;;;;;;;;;;;;;;;;;;6366396;27;19918;-87
2023/10/03 12:04:12;;;;;;;;;;;;;;;;;;6353011;28;20397;-88
2023/10/03 12:07:12;;;;;;;;;;;;;;;;;;6334418;28;19908;-80
2023/10/03 12:10:13;;;;;;;;;;;;;;;;;;6351720;28;19908;-82
2023/10/03 12:13:15;;;;;;;;;;;;;;;;;;6351428;28;19911;-81
2023/10/03 12:16:16;;;;;;;;;;;;;;;;;;6351418;28;20007;-87
2023/10/03 12:19:16;;;;;;;;;;;;;;;;;;6333521;28;20376;-87
2023/10/03 12:22:17;;;;;;;;;;;;;;;;;;6351124;28;19907;-88
2023/10/03 12:25:17;;;;;;;;;;;;;;;;;;6332981;28;19915;-89
2023/10/03 12:28:17;;;;;;;;;;;;;;;;;;6332732;28;19908;-87
2023/10/03 12:31:21;;;;;;;;;;;;;;;;;;6332289;28;19960;-88
2023/10/03 12:34:25;;;;;;;;;;;;;;;;;;6350513;28;19952;-88
2023/10/03 12:37:34;;;;;;;;;;;;;;;;;;6350806;28;19916;-89
2023/10/03 12:40:35;;;;;;;;;;;;;;;;;;6350751;28;20415;-88
2023/10/03 12:43:37;;;;;;;;;;;;;;;;;;6350170;28;20281;-88
2023/10/03 12:46:37;;;;;;;;;;;;;;;;;;6350447;28;19998;-87
2023/10/03 12:49:37;;;;;;;;;;;;;;;;;;6350432;28;19915;-87
2023/10/03 12:52:38;;;;;;;;;;;;;;;;;;6350496;28;19931;-87
2023/10/03 12:55:38;;;;;;;;;;;;;;;;;;6349651;28;19969;-88
2023/10/03 12:58:39;;;;;;;;;;;;;;;;;;6350712;28;19916;-88
2023/10/03 13:01:39;;;;;;;;;;;;;;;;;;6350096;28;19916;-88
2023/10/03 13:04:41;;;;;;;;;;;;;;;;;;6350828;28;19916;-87
2023/10/03 13:07:45;;;;;;;;;;;;;;;;;;6350072;28;19908;-87
2023/10/03 13:10:47;;;;;;;;;;;;;;;;;;6350581;28;19915;-87
2023/10/03 13:13:49;;;;;;;;;;;;;;;;;;6350207;28;19908;-87
2023/10/03 13:16:53;;;;;;;;;;;;;;;;;;6350152;28;19916;-88
2023/10/03 13:19:56;;;;;;;;;;;;;;;;;;6349696;28;19908;-88
2023/10/03 13:22:57;;;;;;;;;;;;;;;;;;6331296;28;19914;-88
2023/10/03 13:25:57;;;;;;;;;;;;;;;;;;6331013;28;19911;-88
2023/10/03 13:28:57;;;;;;;;;;;;;;;;;;6349923;28;19908;-81
2023/10/03 13:31:58;;;;;;;;;;;;;;;;;;6349777;28;19907;-81
2023/10/03 13:34:58;;;;;;;;;;;;;;;;;;6349228;28;19958;-80
2023/10/03 13:37:58;;;;;;;;;;;;;;;;;;6330726;28;19962;-80
2023/10/03 13:40:58;;;;;;;;;;;;;;;;;;6349038;28;20265;-79
2023/10/03 13:43:58;;;;;;;;;;;;;;;;;;6331000;28;19908;-80
2023/10/03 13:46:59;;;;;;;;;;;;;;;;;;6330287;28;20308;-80
2023/10/03 13:49:59;;;;;;;;;;;;;;;;;;6349076;28;19911;-79
2023/10/03 13:52:59;;;;;;;;;;;;;;;;;;6348831;28;19951;-80
2023/10/03 13:56:01;;;;;;;;;;;;;;;;;;6348584;28;20426;-80
2023/10/03 13:59:02;;;;;;;;;;;;;;;;;;6348559;28;20377;-81
2023/10/03 14:02:02;;;;;;;;;;;;;;;;;;6349192;28;20361;-80
2023/10/03 14:05:03;;;;;;;;;;;;;;;;;;6330356;28;19907;-81
2023/10/03 14:08:03;;;;;;;;;;;;;;;;;;6330580;28;19907;-80
2023/10/03 14:11:05;;;;;;;;;;;;;;;;;;6349147;28;19914;-79
2023/10/03 14:14:05;;;;;;;;;;;;;;;;;;6348844;28;19990;-80
2023/10/03 14:17:05;;;;;;;;;;;;;;;;;;6348331;28;19916;-80
2023/10/03 14:20:09;;;;;;;;;;;;;;;;;;6329876;28;19907;-80
2023/10/03 14:23:11;;;;;;;;;;;;;;;;;;6348686;28;20015;-80
2023/10/03 14:26:11;;;;;;;;;;;;;;;;;;6348314;28;19908;-81
2023/10/03 14:29:11;;;;;;;;;;;;;;;;;;6348314;28;19957;-88
2023/10/03 14:32:11;;;;;;;;;;;;;;;;;;6348565;28;19979;-88
2023/10/03 14:35:12;;;;;;;;;;;;;;;;;;6329789;28;20337;-87
2023/10/03 14:38:12;;;;;;;;;;;;;;;;;;6348802;28;19956;-81
2023/10/03 14:41:12;;;;;;;;;;;;;;;;;;6348348;28;19915;-80
2023/10/03 14:44:12;;;;;;;;;;;;;;;;;;6348035;28;19914;-80
2023/10/03 14:47:12;;;;;;;;;;;;;;;;;;6348382;28;20308;-81
2023/10/03 14:50:13;;;;;;;;;;;;;;;;;;6348588;28;19908;-80
2023/10/03 14:53:13;;;;;;;;;;;;;;;;;;6347954;28;19953;-81
2023/10/03 14:56:13;;;;;;;;;;;;;;;;;;6347728;28;19920;-80
2023/10/03 14:59:14;;;;;;;;;;;;;;;;;;6348140;28;20025;-80
2023/10/03 15:02:14;;;;;;;;;;;;;;;;;;6347770;28;19915;-81
2023/10/03 15:05:14;;;;;;;;;;;;;;;;;;6348308;28;19907;-81
2023/10/03 15:08:14;;;;;;;;;;;;;;;;;;6347893;28;19908;-80
2023/10/03 15:11:15;;;;;;;;;;;;;;;;;;6347961;28;20380;-80
2023/10/03 15:14:15;;;;;;;;;;;;;;;;;;6329420;28;19907;-80
2023/10/03 15:17:15;;;;;;;;;;;;;;;;;;6329336;28;19912;-80
2023/10/03 15:20:16;;;;;;;;;;;;;;;;;;6353125;28;19919;-80
2023/10/03 15:23:16;;;;;;;;;;;;;;;;;;6334262;28;19914;-81
2023/10/03 15:26:16;;;;;;;;;;;;;;;;;;6352873;28;19908;-80
2023/10/03 15:29:16;;;;;;;;;;;;;;;;;;6352360;28;20426;-80
2023/10/03 15:32:17;;;;;;;;;;;;;;;;;;6334012;28;19914;-81
2023/10/03 15:35:17;;;;;;;;;;;;;;;;;;6334328;28;19908;-80
2023/10/03 15:38:17;;;;;;;;;;;;;;;;;;6352838;28;19912;-80
2023/10/03 15:41:18;;;;;;;;;;;;;;;;;;6352232;28;19908;-80
2023/10/03 15:44:19;;;;;;;;;;;;;;;;;;6351890;28;20398;-81
2023/10/03 15:47:20;;;;;;;;;;;;;;;;;;6352658;28;19911;-81
2023/10/03 15:50:20;;;;;;;;;;;;;;;;;;6352199;28;19919;-81
2023/10/03 15:53:20;;;;;;;;;;;;;;;;;;6333507;28;19912;-81
2023/10/03 15:56:21;;;;;;;;;;;;;;;;;;6333211;28;19923;-81
2023/10/03 15:59:23;;;;;;;;;;;;;;;;;;6352301;28;19953;-80
2023/10/03 16:02:23;;;;;;;;;;;;;;;;;;6351937;28;19915;-80
2023/10/03 16:05:24;;;;;;;;;;;;;;;;;;6351392;28;20295;-81
2023/10/03 16:08:26;;;;;;;;;;;;;;;;;;6352064;28;19911;-80
2023/10/03 16:11:27;;;;;;;;;;;;;;;;;;6351230;28;20455;-80
2023/10/03 16:14:28;;;;;;;;;;;;;;;;;;6351176;28;20019;-81
2023/10/03 16:17:30;;;;;;;;;;;;;;;;;;6351794;28;19912;-81
2023/10/03 16:20:30;;;;;;;;;;;;;;;;;;6333358;28;19918;-80
2023/10/03 16:23:31;;;;;;;;;;;;;;;;;;6351659;28;19908;-82
2023/10/03 16:26:33;;;;;;;;;;;;;;;;;;6332982;28;20365;-81
2023/10/03 16:29:33;;;;;;;;;;;;;;;;;;6349811;28;20068;-81
2023/10/03 16:32:34;;;;;;;;;;;;;;;;;;6350123;28;20425;-81
2023/10/03 16:35:34;;;;;;;;;;;;;;;;;;6331949;28;19952;-80
2023/10/03 16:38:34;;;;;;;;;;;;;;;;;;6350823;28;19918;-79
2023/10/03 16:41:35;;;;;;;;;;;;;;;;;;6350213;28;19907;-79
2023/10/03 16:44:36;;;;;;;;;;;;;;;;;;6331745;28;19962;-79
2023/10/03 16:47:37;;;;;;;;;;;;;;;;;;6331949;28;19915;-79
2023/10/03 16:50:37;;;;;;;;;;;;;;;;;;6350528;28;19908;-79
2023/10/03 16:53:37;;;;;;;;;;;;;;;;;;6349778;28;20056;-79
2023/10/03 16:56:37;;;;;;;;;;;;;;;;;;6331289;28;20285;-80
2023/10/03 16:59:37;;;;;;;;;;;;;;;;;;6349530;28;19998;-80
2023/10/03 17:02:39;;;;;;;;;;;;;;;;;;6350230;28;19908;-79
2023/10/03 17:05:40;;;;;;;;;;;;;;;;;;6331222;28;19953;-80
2023/10/03 17:08:42;;;;;;;;;;;;;;;;;;6349274;28;19928;-79
2023/10/03 17:11:45;;;;;;;;;;;;;;;;;;6349263;28;19907;-79
2023/10/03 17:14:45;;;;;;;;;;;;;;;;;;6331334;28;19908;-80
2023/10/03 17:17:49;;;;;;;;;;;;;;;;;;6349217;28;20273;-79
2023/10/03 17:20:49;;;;;;;;;;;;;;;;;;6349793;28;19956;-81
2023/10/03 17:23:49;;;;;;;;;;;;;;;;;;6330976;28;19912;-81
2023/10/03 17:26:50;;;;;;;;;;;;;;;;;;6331017;28;19957;-81
2023/10/03 17:29:50;;;;;;;;;;;;;;;;;;6349194;28;19915;-80
2023/10/03 17:32:52;;;;;;;;;;;;;;;;;;6330838;28;20011;-80
2023/10/03 17:35:52;;;;;;;;;;;;;;;;;;6330699;28;19915;-80
2023/10/03 17:38:53;;;;;;;;;;;;;;;;;;6348808;28;20361;-80
2023/10/03 17:41:55;;;;;;;;;;;;;;;;;;6349214;28;19998;-81
2023/10/03 17:44:56;;;;;;;;;;;;;;;;;;6330854;28;19914;-80
2023/10/03 17:47:56;;;;;;;;;;;;;;;;;;6348683;28;19907;-80
2023/10/03 17:50:58;;;;;;;;;;;;;;;;;;6348609;28;19908;-80
2023/10/03 17:53:58;;;;;;;;;;;;;;;;;;6330218;28;19908;-80
2023/10/03 17:56:58;;;;;;;;;;;;;;;;;;6329977;28;19920;-80
2023/10/03 17:59:58;;;;;;;;;;;;;;;;;;6348429;28;19951;-81
2023/10/03 18:02:58;;;;;;;;;;;;;;;;;;6330197;28;20002;-80
2023/10/03 18:05:59;;;;;;;;;;;;;;;;;;6348137;28;20274;-80
2023/10/03 18:09:02;;;;;;;;;;;;;;;;;;6330223;28;19912;-80
2023/10/03 18:12:03;;;;;;;;;;;;;;;;;;6348639;28;19934;-80
2023/10/03 18:15:04;;;;;;;;;;;;;;;;;;6348503;28;19908;-80
2023/10/03 18:18:04;;;;;;;;;;;;;;;;;;6329688;28;19912;-80
2023/10/03 18:21:04;;;;;;;;;;;;;;;;;;6347855;28;19914;-80
2023/10/03 18:24:05;;;;;;;;;;;;;;;;;;6347886;28;19908;-81
2023/10/03 18:27:07;;;;;;;;;;;;;;;;;;6347992;28;19908;-80
2023/10/03 18:30:07;;;;;;;;;;;;;;;;;;6347801;28;19907;-81
2023/10/03 18:33:07;;;;;;;;;;;;;;;;;;6329790;28;19908;-80
2023/10/03 18:36:07;;;;;;;;;;;;;;;;;;6329503;28;19908;-80
2023/10/03 18:39:08;;;;;;;;;;;;;;;;;;6348430;28;19951;-81
2023/10/03 18:42:08;;;;;;;;;;;;;;;;;;6347757;28;19907;-80
2023/10/03 18:45:08;;;;;;;;;;;;;;;;;;6348423;28;19908;-80
2023/10/03 18:48:09;;;;;;;;;;;;;;;;;;6329301;28;19908;-80
2023/10/03 18:51:09;;;;;;;;;;;;;;;;;;6347580;28;20433;-79
2023/10/03 18:54:09;;;;;;;;;;;;;;;;;;6350928;28;20360;-81
2023/10/03 18:57:09;;;;;;;;;;;;;;;;;;6352731;28;19920;-80
2023/10/03 19:00:14;;;;;;;;;;;;;;;;;;6334540;28;19915;-80
2023/10/03 19:03:14;;;;;;;;;;;;;;;;;;6353489;28;20383;-81
2023/10/03 19:06:15;;;;;;;;;;;;;;;;;;6353276;28;19960;-79
2023/10/03 19:09:15;;;;;;;;;;;;;;;;;;6334502;28;19974;-78
2023/10/03 19:12:15;;;;;;;;;;;;;;;;;;6352711;28;19911;-80
2023/10/03 19:15:15;;;;;;;;;;;;;;;;;;6333817;28;20374;-79
2023/10/03 19:18:15;;;;;;;;;;;;;;;;;;6352632;28;19912;-88
2023/10/03 19:21:15;;;;;;;;;;;;;;;;;;6334139;28;19907;-87
2023/10/03 19:24:16;;;;;;;;;;;;;;;;;;6352287;28;19943;-88
2023/10/03 19:27:16;;;;;;;;;;;;;;;;;;6334567;28;19908;-88
2023/10/03 19:30:16;;;;;;;;;;;;;;;;;;6352206;28;19915;-88
2023/10/03 19:33:16;;;;;;;;;;;;;;;;;;6333785;28;19908;-87
2023/10/03 19:36:19;;;;;;;;;;;;;;;;;;6352011;28;19907;-87
2023/10/03 19:39:19;;;;;;;;;;;;;;;;;;6353322;28;20003;-88
2023/10/03 19:42:21;;;;;;;;;;;;;;;;;;6333488;28;20338;-88
2023/10/03 19:45:22;;;;;;;;;;;;;;;;;;6352501;28;19998;-87
2023/10/03 19:48:23;;;;;;;;;;;;;;;;;;6351727;28;19908;-87
2023/10/03 19:51:23;;;;;;;;;;;;;;;;;;6351717;28;19958;-87
2023/10/03 19:54:24;;;;;;;;;;;;;;;;;;6352271;28;20366;-87
2023/10/03 19:57:24;;;;;;;;;;;;;;;;;;6351195;28;20457;-87
2023/10/03 20:00:27;;;;;;;;;;;;;;;;;;6333138;28;19908;-87
2023/10/03 20:03:27;;;;;;;;;;;;;;;;;;6351149;28;20366;-87
2023/10/03 20:06:27;;;;;;;;;;;;;;;;;;6351938;28;19915;-87
2023/10/03 20:09:28;;;;;;;;;;;;;;;;;;6351637;28;19908;-87
2023/10/03 20:12:29;;;;;;;;;;;;;;;;;;6351205;28;19907;-87
2023/10/03 20:15:29;;;;;;;;;;;;;;;;;;6351535;28;20365;-88
2023/10/03 20:18:29;;;;;;;;;;;;;;;;;;6351286;28;20312;-80
2023/10/03 20:21:30;;;;;;;;;;;;;;;;;;6351593;28;20041;-80
2023/10/03 20:24:30;;;;;;;;;;;;;;;;;;6351213;28;19919;-81
2023/10/03 20:27:30;;;;;;;;;;;;;;;;;;6332633;28;19907;-88
2023/10/03 20:30:31;;;;;;;;;;;;;;;;;;6332523;28;19916;-89
2023/10/03 20:33:31;;;;;;;;;;;;;;;;;;6350775;28;19919;-89
2023/10/03 20:36:33;;;;;;;;;;;;;;;;;;6332288;28;20040;-89
2023/10/03 20:39:33;;;;;;;;;;;;;;;;;;6350529;28;19915;-88